Time;durP1;ratioP1;P1;durP2;ratioP2;P2;SDS_P1;SDS_P2;PMS_P1;PMS_P2;Temp;Humidity;BMP_temperature;BMP_pressure;BME280_temperature;BME280_humidity;BME280_pressure;Samples;Min_cycle;Max_cycle;Signal;HPM_P1;HPM_P2
2021/08/10 00:00:23;;;;;;;0.40;0.40;;;24.20;59.10;;;;;;6243128;28;20021;-70
2021/08/10 00:03:24;;;;;;;0.38;0.38;;;24.20;59.20;;;;;;6241441;28;20064;-70
2021/08/10 00:06:24;;;;;;;0.32;0.30;;;24.20;59.10;;;;;;6242993;28;20459;-70
2021/08/10 00:09:25;;;;;;;0.38;0.38;;;24.20;59.20;;;;;;6243030;28;20033;-69
2021/08/10 00:12:26;;;;;;;0.68;0.30;;;24.20;59.10;;;;;;6242877;28;20025;-71
2021/08/10 00:15:26;;;;;;;0.45;0.40;;;24.20;59.10;;;;;;6222255;28;20022;-69
2021/08/10 00:18:27;;;;;;;0.40;0.40;;;24.20;59.10;;;;;;6242647;28;20095;-70
2021/08/10 00:21:27;;;;;;;0.30;0.30;;;24.20;59.20;;;;;;6242438;28;20447;-71
2021/08/10 00:24:28;;;;;;;0.28;0.28;;;24.20;59.20;;;;;;6242778;28;20113;-70
2021/08/10 00:27:28;;;;;;;0.30;0.30;;;24.20;59.20;;;;;;6242465;28;20026;-70
2021/08/10 00:30:29;;;;;;;0.50;0.43;;;24.20;59.20;;;;;;6242896;28;20021;-70
2021/08/10 00:33:29;;;;;;;0.50;0.47;;;24.20;59.20;;;;;;6242357;28;20030;-70
2021/08/10 00:36:30;;;;;;;0.50;0.40;;;24.20;59.20;;;;;;6242843;28;20029;-70
2021/08/10 00:39:30;;;;;;;0.50;0.40;;;24.20;59.20;;;;;;6242452;28;20025;-70
2021/08/10 00:42:31;;;;;;;0.20;0.20;;;24.20;59.20;;;;;;6242438;28;20060;-70
2021/08/10 00:45:32;;;;;;;0.57;0.40;;;24.20;59.20;;;;;;6242328;28;20588;-70
2021/08/10 00:48:32;;;;;;;0.30;0.22;;;24.20;59.20;;;;;;6242528;28;20060;-70
2021/08/10 00:51:33;;;;;;;0.55;0.45;;;24.20;59.20;;;;;;6240840;28;20083;-70
2021/08/10 00:54:34;;;;;;;0.30;0.30;;;24.20;59.20;;;;;;6242596;28;20492;-70
2021/08/10 00:57:35;;;;;;;0.40;0.30;;;24.20;59.20;;;;;;6241808;28;20080;-70
2021/08/10 01:00:35;;;;;;;0.40;0.32;;;24.20;59.20;;;;;;6242197;28;20029;-70
2021/08/10 01:03:36;;;;;;;0.40;0.40;;;24.20;59.20;;;;;;6242590;28;20025;-70
2021/08/10 01:06:48;;;;;;;0.30;0.30;;;24.20;59.20;;;;;;6247109;28;20021;-70
2021/08/10 01:10:07;;;;;;;0.50;0.40;;;24.20;59.20;;;;;;6246790;28;20233;-70
2021/08/10 01:13:31;;;;;;;0.68;0.47;;;24.20;59.20;;;;;;6244306;28;20034;-70
2021/08/10 01:16:48;;;;;;;0.40;0.38;;;24.20;59.10;;;;;;6222606;28;20382;-70
2021/08/10 01:19:55;;;;;;;0.47;0.30;;;24.20;59.10;;;;;;6246679;28;20030;-70
2021/08/10 01:22:57;;;;;;;0.50;0.40;;;24.20;59.10;;;;;;6246100;28;20072;-70
2021/08/10 01:26:17;;;;;;;0.40;0.40;;;24.20;59.10;;;;;;6246698;28;20025;-70
2021/08/10 01:29:35;;;;;;;0.30;0.22;;;24.20;59.10;;;;;;6246722;28;20051;-70
2021/08/10 01:32:37;;;;;;;0.73;0.52;;;24.20;59.10;;;;;;6245918;28;20084;-70
2021/08/10 01:35:40;;;;;;;0.57;0.50;;;24.20;59.10;;;;;;6246852;28;20116;-71
2021/08/10 01:38:44;;;;;;;0.68;0.45;;;24.20;59.10;;;;;;6245853;28;20113;-70
2021/08/10 01:41:46;;;;;;;1.10;0.65;;;24.30;59.20;;;;;;6246404;28;20021;-70
2021/08/10 01:44:47;;;;;;;0.40;0.30;;;24.20;59.10;;;;;;6246103;28;20120;-70
2021/08/10 01:47:49;;;;;;;0.50;0.40;;;24.20;59.10;;;;;;6245772;28;20079;-70
2021/08/10 01:50:49;;;;;;;0.73;0.50;;;24.20;59.10;;;;;;6246068;28;20492;-70
2021/08/10 01:53:52;;;;;;;0.82;0.30;;;24.20;59.10;;;;;;6245356;28;20060;-70
2021/08/10 01:56:53;;;;;;;0.50;0.47;;;24.30;59.20;;;;;;6246192;28;20057;-71
2021/08/10 01:59:55;;;;;;;0.60;0.50;;;24.20;59.10;;;;;;6245267;28;20026;-71
2021/08/10 02:02:58;;;;;;;0.63;0.40;;;24.30;59.20;;;;;;6245512;28;20022;-70
2021/08/10 02:05:58;;;;;;;0.50;0.40;;;24.20;59.10;;;;;;6245561;28;20052;-70
2021/08/10 02:09:00;;;;;;;0.40;0.40;;;24.20;59.10;;;;;;6245711;28;20025;-70
2021/08/10 02:12:02;;;;;;;0.40;0.40;;;24.20;59.00;;;;;;6245140;28;20029;-70
2021/08/10 02:15:03;;;;;;;0.40;0.40;;;24.20;59.10;;;;;;6243142;28;20029;-71
2021/08/10 02:18:03;;;;;;;0.52;0.35;;;24.20;59.00;;;;;;6245290;28;20079;-70
2021/08/10 02:21:09;;;;;;;0.38;0.38;;;24.20;59.00;;;;;;6245215;28;20033;-70
2021/08/10 02:24:20;;;;;;;0.40;0.40;;;24.20;59.10;;;;;;6244755;28;20036;-70
2021/08/10 02:27:51;;;;;;;0.30;0.30;;;24.20;59.00;;;;;;6245400;28;20043;-71
2021/08/10 02:30:53;;;;;;;0.30;0.30;;;24.20;59.80;;;;;;6242450;28;20116;-70
2021/08/10 02:33:54;;;;;;;0.40;0.40;;;24.20;59.00;;;;;;6244551;28;20030;-70
2021/08/10 02:36:58;;;;;;;1.00;0.52;;;24.20;59.00;;;;;;6245173;28;20040;-70
2021/08/10 02:40:03;;;;;;;0.70;0.47;;;24.20;59.00;;;;;;6244819;28;20477;-70
2021/08/10 02:43:05;;;;;;;0.40;0.40;;;24.20;59.10;;;;;;6245684;28;20025;-70
2021/08/10 02:46:06;;;;;;;0.80;0.40;;;24.20;59.00;;;;;;6244274;28;20033;-70
2021/08/10 02:49:11;;;;;;;0.32;0.30;;;24.20;59.10;;;;;;6244582;28;20503;-70
2021/08/10 02:52:12;;;;;;;0.50;0.40;;;24.20;59.00;;;;;;6244501;28;20484;-70
2021/08/10 02:55:13;;;;;;;0.43;0.38;;;24.20;59.00;;;;;;6244545;28;20112;-70
2021/08/10 02:58:29;;;;;;;0.38;0.38;;;24.20;59.00;;;;;;6244347;28;20050;-70
2021/08/10 03:01:34;;;;;;;0.40;0.40;;;24.20;59.00;;;;;;6244449;28;20393;-70
2021/08/10 03:04:37;;;;;;;0.80;0.60;;;24.20;59.00;;;;;;6244090;28;20048;-70
2021/08/10 03:07:44;;;;;;;0.40;0.40;;;24.20;59.00;;;;;;6244400;28;20268;-70
2021/08/10 03:10:45;;;;;;;0.40;0.40;;;24.20;59.00;;;;;;6244370;28;20026;-70
2021/08/10 03:13:47;;;;;;;0.63;0.40;;;24.20;59.00;;;;;;6242977;28;20132;-70
2021/08/10 03:16:48;;;;;;;0.40;0.40;;;24.20;59.00;;;;;;6243649;28;20099;-70
2021/08/10 03:19:52;;;;;;;0.30;0.30;;;24.20;59.00;;;;;;6243741;28;20029;-70
2021/08/10 03:22:54;;;;;;;1.33;0.30;;;24.20;59.00;;;;;;6243514;28;20052;-70
2021/08/10 03:25:55;;;;;;;0.40;0.40;;;24.20;59.00;;;;;;6243788;28;20281;-70
2021/08/10 03:28:56;;;;;;;0.60;0.30;;;24.20;59.00;;;;;;6242932;28;20037;-70
2021/08/10 03:31:57;;;;;;;0.38;0.30;;;24.30;59.00;;;;;;6243422;28;20029;-70
2021/08/10 03:34:59;;;;;;;0.38;0.38;;;24.20;59.00;;;;;;6243251;28;20112;-70
2021/08/10 03:38:00;;;;;;;0.90;0.22;;;24.20;59.00;;;;;;6243526;28;20060;-70
2021/08/10 03:41:02;;;;;;;0.28;0.28;;;24.20;59.00;;;;;;6243046;28;20025;-71
2021/08/10 03:44:03;;;;;;;0.30;0.30;;;24.20;59.00;;;;;;6243524;28;20025;-70
2021/08/10 03:47:03;;;;;;;0.25;0.25;;;24.20;59.00;;;;;;6243857;28;20112;-70
2021/08/10 03:50:05;;;;;;;0.50;0.30;;;24.20;59.00;;;;;;6242718;28;20041;-70
2021/08/10 03:53:06;;;;;;;0.40;0.40;;;24.20;59.00;;;;;;6242822;28;20039;-70
2021/08/10 03:56:09;;;;;;;0.50;0.40;;;24.20;59.00;;;;;;6242905;28;20559;-70
2021/08/10 04:03:10;;;;;;;0.40;0.30;;;24.20;59.00;;;;;;6243120;28;20072;-70
2021/08/10 04:06:12;;;;;;;0.47;0.30;;;24.20;59.00;;;;;;6242835;28;20424;-70
2021/08/10 04:09:13;;;;;;;0.55;0.40;;;24.30;59.00;;;;;;6242914;28;20022;-70
2021/08/10 04:12:14;;;;;;;0.35;0.30;;;24.20;58.90;;;;;;6242488;28;20037;-70
2021/08/10 04:15:15;;;;;;;0.75;0.30;;;24.20;59.00;;;;;;6224143;28;20592;-70
2021/08/10 04:18:20;;;;;;;0.55;0.30;;;24.20;58.90;;;;;;6238158;28;20428;-70
2021/08/10 04:21:25;;;;;;;0.30;0.30;;;24.20;59.00;;;;;;6242362;28;20374;-70
2021/08/10 04:24:26;;;;;;;0.20;0.20;;;24.20;59.00;;;;;;6242651;28;20577;-70
2021/08/10 04:27:26;;;;;;;0.40;0.40;;;24.20;58.90;;;;;;6242484;28;20029;-70
2021/08/10 04:30:27;;;;;;;0.47;0.40;;;24.20;58.90;;;;;;6242891;28;20495;-70
2021/08/10 04:33:27;;;;;;;0.20;0.20;;;24.20;58.90;;;;;;6242185;28;20539;-70
2021/08/10 04:36:28;;;;;;;0.50;0.40;;;24.20;59.00;;;;;;6242818;28;20052;-70
2021/08/10 04:39:29;;;;;;;0.38;0.38;;;24.20;58.90;;;;;;6244775;28;20095;-70
2021/08/10 04:42:29;;;;;;;0.60;0.40;;;24.20;58.90;;;;;;6247325;28;20018;-70
2021/08/10 04:45:30;;;;;;;0.30;0.30;;;24.20;58.90;;;;;;6247645;28;20022;-71
2021/08/10 04:48:30;;;;;;;0.40;0.30;;;24.20;58.90;;;;;;6246998;28;20026;-70
2021/08/10 04:51:32;;;;;;;0.30;0.30;;;24.20;58.90;;;;;;6246984;28;20105;-70
2021/08/10 04:54:34;;;;;;;0.38;0.38;;;24.20;58.90;;;;;;6247483;28;20030;-70
2021/08/10 04:57:34;;;;;;;0.40;0.40;;;24.30;59.00;;;;;;6246631;28;20053;-70
2021/08/10 05:00:34;;;;;;;0.43;0.40;;;24.20;58.90;;;;;;6246644;28;20033;-70
2021/08/10 05:03:35;;;;;;;0.30;0.30;;;24.20;58.90;;;;;;6245105;28;20033;-70
2021/08/10 05:06:36;;;;;;;0.30;0.30;;;24.20;58.90;;;;;;6247598;28;20550;-70
2021/08/10 05:09:37;;;;;;;0.68;0.30;;;24.20;58.90;;;;;;6246906;28;20191;-70
2021/08/10 05:12:37;;;;;;;0.30;0.30;;;24.30;59.00;;;;;;6246567;28;20425;-70
2021/08/10 05:15:38;;;;;;;0.30;0.30;;;24.20;59.60;;;;;;6224162;28;20033;-70
2021/08/10 05:18:39;;;;;;;0.40;0.40;;;24.30;59.00;;;;;;6234746;28;20116;-70
2021/08/10 05:21:39;;;;;;;0.20;0.20;;;24.20;58.90;;;;;;6246739;28;20099;-70
2021/08/10 05:24:40;;;;;;;0.52;0.40;;;24.30;59.00;;;;;;6246743;28;20029;-70
2021/08/10 05:27:40;;;;;;;0.60;0.40;;;24.20;58.90;;;;;;6246728;28;20104;-70
2021/08/10 05:30:41;;;;;;;0.45;0.40;;;24.20;58.90;;;;;;6246852;28;20029;-70
2021/08/10 05:33:41;;;;;;;0.30;0.30;;;24.20;58.90;;;;;;6245876;28;20076;-70
2021/08/10 05:36:42;;;;;;;0.50;0.38;;;24.20;58.90;;;;;;6246551;28;20381;-70
2021/08/10 05:39:42;;;;;;;0.50;0.40;;;24.20;58.90;;;;;;6246124;28;20026;-70
2021/08/10 05:42:42;;;;;;;0.40;0.30;;;24.20;58.90;;;;;;6245807;28;20029;-70
2021/08/10 05:45:43;;;;;;;0.30;0.30;;;24.20;58.90;;;;;;6246173;28;20093;-70
2021/08/10 05:48:43;;;;;;;0.40;0.32;;;24.20;58.90;;;;;;6245999;28;20029;-70
2021/08/10 05:51:44;;;;;;;0.47;0.40;;;24.20;58.90;;;;;;6244991;28;20101;-70
2021/08/10 05:54:44;;;;;;;0.40;0.30;;;24.20;58.90;;;;;;6246015;28;20025;-70
2021/08/10 05:57:45;;;;;;;0.30;0.30;;;24.20;58.90;;;;;;6245886;28;20072;-70
2021/08/10 06:00:45;;;;;;;0.65;0.40;;;24.20;58.90;;;;;;6240470;28;20036;-70
2021/08/10 06:03:46;;;;;;;0.20;0.20;;;24.20;58.90;;;;;;6231479;28;20033;-70
2021/08/10 06:06:46;;;;;;;1.20;0.43;;;24.20;58.90;;;;;;6247818;28;20037;-70
2021/08/10 06:09:47;;;;;;;0.40;0.40;;;24.30;59.00;;;;;;6239862;28;20022;-70
2021/08/10 06:12:48;;;;;;;1.05;0.40;;;24.20;58.80;;;;;;6247522;28;20543;-70
2021/08/10 06:15:48;;;;;;;0.40;0.30;;;24.20;58.90;;;;;;6243466;28;20071;-70
2021/08/10 06:18:49;;;;;;;0.30;0.30;;;24.20;58.90;;;;;;6246637;28;20037;-70
2021/08/10 06:21:52;;;;;;;0.20;0.20;;;24.20;58.90;;;;;;6247458;28;20100;-70
2021/08/10 06:24:52;;;;;;;0.30;0.30;;;24.20;58.90;;;;;;6247636;28;20029;-70
2021/08/10 06:27:53;;;;;;;0.30;0.30;;;24.20;58.90;;;;;;6247180;28;20349;-70
2021/08/10 06:30:54;;;;;;;0.30;0.30;;;24.20;58.90;;;;;;6246770;28;20053;-70
2021/08/10 06:33:54;;;;;;;0.50;0.40;;;24.20;58.80;;;;;;6246622;28;20511;-70
2021/08/10 06:36:55;;;;;;;0.20;0.20;;;24.20;58.80;;;;;;6247325;28;20424;-70
2021/08/10 06:39:55;;;;;;;0.40;0.40;;;24.20;58.80;;;;;;6246812;28;20527;-70
2021/08/10 06:42:56;;;;;;;0.30;0.30;;;24.20;58.70;;;;;;6247323;28;20032;-70
2021/08/10 06:45:57;;;;;;;0.30;0.30;;;24.20;58.70;;;;;;6245521;28;20508;-70
2021/08/10 06:48:57;;;;;;;0.77;0.50;;;24.20;58.70;;;;;;6246488;28;20534;-70
2021/08/10 06:51:58;;;;;;;0.70;0.35;;;24.20;58.70;;;;;;6246452;28;20032;-71
2021/08/10 06:54:58;;;;;;;0.70;0.43;;;24.30;58.80;;;;;;6246178;28;20037;-70
2021/08/10 06:57:59;;;;;;;0.32;0.30;;;24.20;58.70;;;;;;6246460;28;20127;-70
2021/08/10 07:00:59;;;;;;;0.50;0.40;;;24.20;58.70;;;;;;6245982;28;20025;-70
2021/08/10 07:04:00;;;;;;;0.57;0.40;;;24.20;58.70;;;;;;6245971;28;20022;-70
2021/08/10 07:07:01;;;;;;;1.27;0.40;;;24.20;58.70;;;;;;6246144;28;20056;-70
2021/08/10 07:10:05;;;;;;;0.30;0.30;;;24.20;58.70;;;;;;6246382;28;20022;-70
2021/08/10 07:13:06;;;;;;;0.55;0.40;;;24.20;58.80;;;;;;6242950;28;20079;-70
2021/08/10 07:16:06;;;;;;;0.75;0.55;;;24.30;58.90;;;;;;6244003;28;20143;-70
2021/08/10 07:19:07;;;;;;;0.45;0.30;;;24.20;58.70;;;;;;6245716;28;20104;-70
2021/08/10 07:22:08;;;;;;;1.05;0.60;;;24.20;58.70;;;;;;6245796;28;20052;-70
2021/08/10 07:25:09;;;;;;;0.40;0.38;;;24.20;58.80;;;;;;6245387;28;20033;-70
2021/08/10 07:28:09;;;;;;;0.80;0.60;;;24.20;58.80;;;;;;6245996;28;20029;-70
2021/08/10 07:31:10;;;;;;;0.68;0.50;;;24.30;58.90;;;;;;6244985;28;20476;-70
2021/08/10 07:34:11;;;;;;;0.30;0.30;;;24.20;58.80;;;;;;6245935;28;20045;-70
2021/08/10 07:37:11;;;;;;;0.60;0.40;;;24.20;58.80;;;;;;6245574;28;20044;-71
2021/08/10 07:40:13;;;;;;;0.55;0.20;;;24.20;58.80;;;;;;6245900;28;20026;-70
2021/08/10 07:43:13;;;;;;;0.40;0.40;;;24.20;58.80;;;;;;6244943;28;20040;-70
2021/08/10 07:46:14;;;;;;;1.75;0.30;;;24.20;58.80;;;;;;6245215;28;20045;-70
2021/08/10 07:49:15;;;;;;;1.05;0.47;;;24.20;58.80;;;;;;6245344;28;20532;-70
2021/08/10 07:52:15;;;;;;;0.60;0.50;;;24.20;58.80;;;;;;6245077;28;20384;-70
2021/08/10 07:55:16;;;;;;;0.50;0.50;;;24.20;58.80;;;;;;6245765;28;20420;-71
2021/08/10 07:58:17;;;;;;;0.43;0.38;;;24.30;58.90;;;;;;6244860;28;20053;-70
2021/08/10 08:01:17;;;;;;;0.50;0.43;;;24.20;58.80;;;;;;6245466;28;20029;-70
2021/08/10 08:04:18;;;;;;;0.35;0.30;;;24.20;58.80;;;;;;6245096;28;20018;-71
2021/08/10 08:07:18;;;;;;;0.50;0.50;;;24.20;58.70;;;;;;6245297;28;20135;-70
2021/08/10 08:10:19;;;;;;;0.30;0.30;;;24.20;58.80;;;;;;6245064;28;20025;-71
2021/08/10 08:13:20;;;;;;;0.50;0.30;;;24.20;58.80;;;;;;6240238;28;20060;-70
2021/08/10 08:16:21;;;;;;;0.73;0.55;;;24.30;58.90;;;;;;6229791;28;20022;-70
2021/08/10 08:19:21;;;;;;;0.50;0.30;;;24.20;58.80;;;;;;6245012;28;20104;-70
2021/08/10 08:22:22;;;;;;;0.30;0.30;;;24.20;58.80;;;;;;6244679;28;20033;-70
2021/08/10 08:25:23;;;;;;;0.47;0.40;;;24.20;58.80;;;;;;6244478;28;20076;-70
2021/08/10 08:28:23;;;;;;;0.60;0.30;;;24.20;58.80;;;;;;6244829;28;20029;-70
2021/08/10 08:31:24;;;;;;;0.75;0.40;;;24.20;58.90;;;;;;6244837;28;20029;-70
2021/08/10 08:34:24;;;;;;;0.52;0.38;;;24.20;58.80;;;;;;6244239;28;20037;-70
2021/08/10 08:37:25;;;;;;;0.40;0.40;;;24.20;58.80;;;;;;6244425;28;20384;-70
2021/08/10 08:40:26;;;;;;;0.30;0.30;;;24.20;58.90;;;;;;6244830;28;20044;-70
2021/08/10 08:43:26;;;;;;;0.30;0.30;;;24.20;58.80;;;;;;6244486;28;20034;-70
2021/08/10 08:46:27;;;;;;;0.60;0.30;;;24.20;58.80;;;;;;6244086;28;20117;-70
2021/08/10 08:49:30;;;;;;;0.55;0.40;;;24.20;58.80;;;;;;6244156;28;20037;-70
2021/08/10 08:52:32;;;;;;;0.52;0.40;;;24.20;58.80;;;;;;6243735;28;20037;-70
2021/08/10 08:55:33;;;;;;;0.68;0.30;;;24.20;58.70;;;;;;6244214;28;20069;-70
2021/08/10 08:58:34;;;;;;;0.75;0.50;;;24.30;58.90;;;;;;6244395;28;20025;-70
2021/08/10 09:01:37;;;;;;;0.70;0.50;;;24.20;58.70;;;;;;6244107;28;20056;-70
2021/08/10 09:04:38;;;;;;;0.65;0.35;;;24.20;58.80;;;;;;6243824;28;20061;-70
2021/08/10 09:07:40;;;;;;;0.40;0.30;;;24.20;58.80;;;;;;6242626;28;20080;-70
2021/08/10 09:10:52;;;;;;;0.40;0.30;;;24.20;58.80;;;;;;6245193;28;20018;-70
2021/08/10 09:14:01;;;;;;;0.30;0.30;;;24.20;58.80;;;;;;6235803;28;20034;-70
2021/08/10 09:17:11;;;;;;;0.43;0.30;;;24.20;58.80;;;;;;6219442;28;20120;-70
2021/08/10 09:20:20;;;;;;;0.40;0.30;;;24.20;58.80;;;;;;6241829;28;20041;-70
2021/08/10 09:23:39;;;;;;;0.47;0.30;;;24.20;58.80;;;;;;6243990;28;20061;-70
2021/08/10 09:26:42;;;;;;;0.40;0.30;;;24.20;58.80;;;;;;6247984;28;20464;-70
2021/08/10 09:29:46;;;;;;;0.70;0.45;;;24.20;58.80;;;;;;6248306;28;20457;-70
2021/08/10 09:32:53;;;;;;;0.40;0.40;;;24.20;58.80;;;;;;6248209;28;20068;-69
2021/08/10 09:35:55;;;;;;;0.30;0.30;;;24.20;58.70;;;;;;6248759;28;20021;-70
2021/08/10 09:38:57;;;;;;;0.57;0.40;;;24.20;58.80;;;;;;6248131;28;20033;-70
2021/08/10 09:42:04;;;;;;;0.52;0.30;;;24.20;58.80;;;;;;6248139;28;20033;-70
2021/08/10 09:45:06;;;;;;;0.40;0.40;;;24.20;58.80;;;;;;6247837;28;20029;-70
2021/08/10 09:48:13;;;;;;;0.60;0.43;;;24.30;58.90;;;;;;6246548;28;20508;-70
2021/08/10 09:51:16;;;;;;;0.80;0.38;;;24.20;58.80;;;;;;6247932;28;20555;-70
2021/08/10 09:54:19;;;;;;;0.30;0.30;;;24.30;58.80;;;;;;6247064;28;20037;-70
2021/08/10 09:57:19;;;;;;;0.35;0.30;;;24.20;58.80;;;;;;6247820;28;20057;-70
2021/08/10 10:00:40;;;;;;;0.40;0.30;;;24.20;58.70;;;;;;6247704;28;20499;-70
2021/08/10 10:03:40;;;;;;;0.47;0.40;;;24.20;58.80;;;;;;6246737;28;20492;-70
2021/08/10 10:06:42;;;;;;;0.45;0.30;;;24.20;58.80;;;;;;6247681;28;20037;-70
2021/08/10 10:09:44;;;;;;;0.65;0.35;;;24.20;58.80;;;;;;6247197;28;20079;-70
2021/08/10 10:12:45;;;;;;;0.68;0.40;;;24.20;58.80;;;;;;6247720;28;20035;-70
2021/08/10 10:15:46;;;;;;;0.50;0.35;;;24.20;58.70;;;;;;6245589;28;20017;-70
2021/08/10 10:18:47;;;;;;;0.40;0.30;;;24.20;58.80;;;;;;6247493;28;20025;-70
2021/08/10 10:21:51;;;;;;;0.55;0.40;;;24.20;58.80;;;;;;6247397;28;20076;-70
2021/08/10 10:24:54;;;;;;;0.40;0.40;;;24.30;58.90;;;;;;6247382;28;20481;-70
2021/08/10 10:27:55;;;;;;;0.68;0.30;;;24.20;58.80;;;;;;6247987;28;20032;-70
2021/08/10 10:30:56;;;;;;;0.47;0.30;;;24.20;58.80;;;;;;6247430;28;20034;-70
2021/08/10 10:33:58;;;;;;;0.52;0.35;;;24.20;58.80;;;;;;6247026;28;20429;-70
2021/08/10 10:37:00;;;;;;;0.30;0.30;;;24.20;58.80;;;;;;6246711;28;20028;-70
2021/08/10 10:40:04;;;;;;;0.32;0.32;;;24.20;58.80;;;;;;6247012;28;20032;-69
2021/08/10 10:43:05;;;;;;;0.30;0.30;;;24.20;58.80;;;;;;6246612;28;20036;-70
2021/08/10 10:46:35;;;;;;;0.40;0.30;;;24.20;58.80;;;;;;6246850;28;20060;-70
2021/08/10 10:49:37;;;;;;;1.02;0.30;;;24.20;58.80;;;;;;6246534;28;20116;-70
2021/08/10 10:52:38;;;;;;;0.38;0.30;;;24.20;58.70;;;;;;6245468;28;20088;-70
2021/08/10 10:55:41;;;;;;;0.50;0.40;;;24.20;58.80;;;;;;6246486;28;20026;-70
2021/08/10 10:58:41;;;;;;;0.60;0.40;;;24.20;58.80;;;;;;6246841;28;20069;-70
2021/08/10 11:01:42;;;;;;;0.50;0.50;;;24.20;58.80;;;;;;6246237;28;20033;-70
2021/08/10 11:05:17;;;;;;;0.82;0.40;;;24.20;58.80;;;;;;6246260;28;20059;-69
2021/08/10 11:08:38;;;;;;;0.75;0.40;;;24.20;58.70;;;;;;6246065;28;20086;-70
2021/08/10 11:11:49;;;;;;;0.25;0.25;;;24.20;58.80;;;;;;6245736;28;20038;-70
2021/08/10 11:14:49;;;;;;;0.30;0.30;;;24.20;58.80;;;;;;6230180;28;20025;-70
2021/08/10 11:18:21;;;;;;;0.38;0.30;;;24.20;58.80;;;;;;6239543;28;20480;-70
2021/08/10 11:21:24;;;;;;;0.40;0.30;;;24.20;58.80;;;;;;6245239;28;20037;-70
2021/08/10 11:24:34;;;;;;;0.30;0.30;;;24.30;58.90;;;;;;6245310;28;20096;-70
2021/08/10 11:27:45;;;;;;;0.43;0.40;;;24.20;58.80;;;;;;6245514;28;20028;-71
2021/08/10 11:30:46;;;;;;;0.30;0.25;;;24.20;58.80;;;;;;6246061;28;20029;-70
2021/08/10 11:33:47;;;;;;;0.38;0.35;;;24.20;58.80;;;;;;6245128;28;20026;-70
2021/08/10 11:37:08;;;;;;;0.50;0.38;;;24.20;58.80;;;;;;6245680;28;20068;-70
2021/08/10 11:40:12;;;;;;;0.40;0.40;;;24.30;58.80;;;;;;6245284;28;20465;-70
2021/08/10 11:43:12;;;;;;;0.40;0.32;;;24.20;58.80;;;;;;6245176;28;20480;-70
2021/08/10 11:46:17;;;;;;;0.63;0.30;;;24.20;58.70;;;;;;6244866;28;20040;-70
2021/08/10 11:49:20;;;;;;;0.60;0.40;;;24.20;58.80;;;;;;6244224;28;20033;-70
2021/08/10 11:52:21;;;;;;;0.38;0.30;;;24.20;58.80;;;;;;6244822;28;20395;-70
2021/08/10 11:55:29;;;;;;;0.30;0.22;;;24.30;58.90;;;;;;6245053;28;20109;-70
2021/08/10 11:58:43;;;;;;;0.38;0.28;;;24.20;58.80;;;;;;6245028;28;20163;-70
2021/08/10 12:01:45;;;;;;;0.43;0.40;;;24.20;58.80;;;;;;6244998;28;20025;-70
2021/08/10 12:04:46;;;;;;;0.30;0.30;;;24.20;58.80;;;;;;6245038;28;20103;-70
2021/08/10 12:07:58;;;;;;;0.98;0.30;;;24.20;58.80;;;;;;6245240;28;20056;-70
2021/08/10 12:10:59;;;;;;;0.50;0.40;;;24.30;58.90;;;;;;6244897;28;20120;-70
2021/08/10 12:14:13;;;;;;;0.52;0.40;;;24.20;58.80;;;;;;6236059;28;20435;-70
2021/08/10 12:17:15;;;;;;;0.75;0.40;;;24.20;58.80;;;;;;6223588;28;20452;-70
2021/08/10 12:20:15;;;;;;;0.50;0.35;;;24.20;58.80;;;;;;6245249;28;20045;-70
2021/08/10 12:23:16;;;;;;;0.88;0.50;;;24.20;58.80;;;;;;6244260;28;20040;-70
2021/08/10 12:26:18;;;;;;;0.70;0.30;;;24.20;58.80;;;;;;6244940;28;20021;-70
2021/08/10 12:29:19;;;;;;;0.40;0.40;;;24.20;58.80;;;;;;6244379;28;20037;-70
2021/08/10 12:32:25;;;;;;;0.35;0.30;;;24.20;58.80;;;;;;6244399;28;20480;-70
2021/08/10 12:35:27;;;;;;;0.40;0.30;;;24.20;58.80;;;;;;6244773;28;20017;-70
2021/08/10 12:38:28;;;;;;;1.55;0.30;;;24.20;58.80;;;;;;6244655;28;20028;-70
2021/08/10 12:41:30;;;;;;;0.40;0.35;;;24.20;58.80;;;;;;6244571;28;20331;-70
2021/08/10 12:44:31;;;;;;;0.52;0.35;;;24.20;59.10;;;;;;6244443;28;20551;-70
2021/08/10 12:47:36;;;;;;;0.95;0.38;;;24.20;58.90;;;;;;6244407;28;20075;-70
2021/08/10 12:50:36;;;;;;;0.55;0.40;;;24.20;58.80;;;;;;6244826;28;20021;-70
2021/08/10 12:53:37;;;;;;;0.50;0.40;;;24.20;58.90;;;;;;6244172;28;20072;-70
2021/08/10 12:56:38;;;;;;;0.60;0.50;;;24.20;58.80;;;;;;6244543;28;20392;-70
2021/08/10 12:59:41;;;;;;;0.47;0.40;;;24.20;58.80;;;;;;6245405;28;20493;-70
2021/08/10 13:02:44;;;;;;;0.40;0.40;;;24.30;58.90;;;;;;6248808;28;20026;-70
2021/08/10 13:05:44;;;;;;;0.40;0.40;;;24.30;58.90;;;;;;6224624;28;20083;-70
2021/08/10 13:08:55;;;;;;;0.80;0.30;;;24.20;58.80;;;;;;6233588;28;20435;-70
2021/08/10 13:12:07;;;;;;;1.15;0.32;;;24.20;58.80;;;;;;6248680;28;20099;-70
2021/08/10 13:15:09;;;;;;;0.85;0.40;;;24.20;58.80;;;;;;6247650;28;20028;-70
2021/08/10 13:18:17;;;;;;;0.40;0.30;;;24.20;58.80;;;;;;6248146;28;20026;-70
2021/08/10 13:21:21;;;;;;;0.30;0.30;;;24.20;58.80;;;;;;6248503;28;20032;-70
2021/08/10 13:24:25;;;;;;;0.63;0.50;;;24.20;58.80;;;;;;6248502;28;20017;-70
2021/08/10 13:27:26;;;;;;;0.32;0.30;;;24.20;58.80;;;;;;6248507;28;20018;-70
2021/08/10 13:30:28;;;;;;;0.47;0.40;;;24.20;58.80;;;;;;6248134;28;20148;-70
2021/08/10 13:33:29;;;;;;;0.63;0.38;;;24.20;58.80;;;;;;6247920;28;20048;-70
2021/08/10 13:36:30;;;;;;;0.57;0.40;;;24.20;58.80;;;;;;6248624;28;20021;-70
2021/08/10 13:39:31;;;;;;;0.30;0.30;;;24.20;58.80;;;;;;6247962;28;20032;-70
2021/08/10 13:42:31;;;;;;;0.85;0.65;;;24.30;58.90;;;;;;6248225;28;20030;-70
2021/08/10 13:45:40;;;;;;;0.70;0.50;;;24.20;58.80;;;;;;6248394;28;20087;-70
2021/08/10 13:48:40;;;;;;;0.52;0.32;;;24.20;58.90;;;;;;6247683;28;20040;-70
2021/08/10 13:51:41;;;;;;;0.40;0.40;;;24.20;58.80;;;;;;6247948;28;20472;-70
2021/08/10 13:54:41;;;;;;;0.73;0.50;;;24.20;58.90;;;;;;6247987;28;20062;-70
2021/08/10 13:57:44;;;;;;;0.30;0.30;;;24.20;58.80;;;;;;6247672;28;20057;-70
2021/08/10 14:00:45;;;;;;;0.60;0.40;;;24.20;58.80;;;;;;6247530;28;20029;-70
2021/08/10 14:03:45;;;;;;;0.50;0.50;;;24.20;58.90;;;;;;6247418;28;20052;-70
2021/08/10 14:06:46;;;;;;;0.40;0.40;;;24.20;58.90;;;;;;6247459;28;20029;-70
2021/08/10 14:09:46;;;;;;;0.57;0.38;;;24.20;58.80;;;;;;6247150;28;20036;-70
2021/08/10 14:12:47;;;;;;;0.82;0.63;;;24.20;58.90;;;;;;6246836;28;20038;-70
2021/08/10 14:15:47;;;;;;;0.65;0.60;;;24.20;58.90;;;;;;6234123;28;20021;-70
2021/08/10 14:18:48;;;;;;;1.05;0.40;;;24.20;58.90;;;;;;6247532;28;20032;-70
2021/08/10 14:21:49;;;;;;;0.60;0.50;;;24.20;58.90;;;;;;6247189;28;20108;-70
2021/08/10 14:24:49;;;;;;;0.77;0.55;;;24.20;58.90;;;;;;6247463;28;20014;-70
2021/08/10 14:27:50;;;;;;;1.02;0.50;;;24.20;58.90;;;;;;6247256;28;20022;-70
2021/08/10 14:30:50;;;;;;;0.50;0.40;;;24.20;58.90;;;;;;6247430;28;20032;-70
2021/08/10 14:33:51;;;;;;;0.43;0.30;;;24.20;58.90;;;;;;6236959;28;20315;-71
2021/08/10 14:36:51;;;;;;;0.40;0.40;;;24.20;58.90;;;;;;6238601;28;20484;-70
2021/08/10 14:39:52;;;;;;;0.60;0.40;;;24.30;59.00;;;;;;6246647;28;20104;-70
2021/08/10 14:42:54;;;;;;;1.02;0.60;;;24.20;58.90;;;;;;6246973;28;20027;-70
2021/08/10 14:45:55;;;;;;;0.30;0.30;;;24.30;59.00;;;;;;6243756;28;20037;-70
2021/08/10 14:48:55;;;;;;;0.57;0.35;;;24.20;58.90;;;;;;6246628;28;20047;-70
2021/08/10 14:51:56;;;;;;;0.55;0.52;;;24.20;58.90;;;;;;6246358;28;20030;-70
2021/08/10 14:54:56;;;;;;;0.80;0.40;;;24.30;59.00;;;;;;6247050;28;20485;-70
2021/08/10 14:57:57;;;;;;;0.30;0.30;;;24.20;58.90;;;;;;6246249;28;20049;-70
2021/08/10 15:00:57;;;;;;;0.52;0.43;;;24.30;59.00;;;;;;6246457;28;20025;-70
2021/08/10 15:03:58;;;;;;;0.52;0.30;;;24.20;58.90;;;;;;6246104;28;20103;-70
2021/08/10 15:06:59;;;;;;;2.88;0.40;;;24.20;58.90;;;;;;6245876;28;20069;-70
2021/08/10 15:10:00;;;;;;;0.40;0.40;;;24.20;59.00;;;;;;6246507;28;20045;-70
2021/08/10 15:13:00;;;;;;;0.50;0.50;;;24.30;59.00;;;;;;6244647;28;20030;-70
2021/08/10 15:16:01;;;;;;;0.68;0.32;;;24.20;58.90;;;;;;6223224;28;20477;-70
2021/08/10 15:19:01;;;;;;;0.30;0.30;;;24.20;58.90;;;;;;6246065;28;20079;-70
2021/08/10 15:22:02;;;;;;;0.77;0.40;;;24.20;59.00;;;;;;6245644;28;20481;-70
2021/08/10 15:25:04;;;;;;;0.65;0.50;;;24.20;59.00;;;;;;6246268;28;20032;-70
2021/08/10 15:28:06;;;;;;;0.40;0.35;;;24.20;59.00;;;;;;6245068;28;20570;-70
2021/08/10 15:31:07;;;;;;;0.38;0.38;;;24.20;58.90;;;;;;6246137;28;20056;-70
2021/08/10 15:34:09;;;;;;;0.38;0.32;;;24.20;58.90;;;;;;6245618;28;20554;-70
2021/08/10 15:37:12;;;;;;;0.40;0.40;;;24.20;58.90;;;;;;6245385;28;20021;-70
2021/08/10 15:40:13;;;;;;;0.68;0.43;;;24.20;58.90;;;;;;6244574;28;20373;-70
2021/08/10 15:43:14;;;;;;;0.63;0.30;;;24.20;58.90;;;;;;6245417;28;20021;-70
2021/08/10 15:46:18;;;;;;;0.38;0.30;;;24.20;58.90;;;;;;6245635;28;20389;-70
2021/08/10 15:49:18;;;;;;;0.70;0.40;;;24.20;59.00;;;;;;6245142;28;20022;-70
2021/08/10 15:52:19;;;;;;;0.77;0.40;;;24.20;58.90;;;;;;6244604;28;20600;-70
2021/08/10 15:55:20;;;;;;;0.55;0.45;;;24.20;58.90;;;;;;6245248;28;20056;-70